Time;durP1;ratioP1;P1;durP2;ratioP2;P2;SDS_P1;SDS_P2;PMS_P1;PMS_P2;Temp;Humidity;BMP_temperature;BMP_pressure;BME280_temperature;BME280_humidity;BME280_pressure;Samples;Min_cycle;Max_cycle;Signal;HPM_P1;HPM_P2
2023/02/01 00:03:48;;;;;;;6.22;2.30;;;6.00;21.90;;;;;;20640833;28;20042;-44
2023/02/01 00:13:49;;;;;;;5.68;1.20;;;6.10;24.30;;;;;;20636835;28;20121;-43
2023/02/01 00:23:50;;;;;;;5.35;2.60;;;6.00;27.50;;;;;;20644089;28;20223;-43
2023/02/01 00:33:51;;;;;;;4.30;1.15;;;6.20;27.90;;;;;;20632700;28;20207;-43
2023/02/01 00:43:52;;;;;;;7.50;3.17;;;6.40;20.20;;;;;;20641868;28;20062;-43
2023/02/01 00:53:54;;;;;;;9.15;1.98;;;6.50;17.90;;;;;;20641770;28;20196;-44
2023/02/01 01:03:57;;;;;;;9.25;2.13;;;6.50;16.60;;;;;;20636627;28;20121;-43
2023/02/01 01:14:00;;;;;;;10.80;2.95;;;6.50;12.90;;;;;;20630600;28;20125;-43
2023/02/01 01:24:01;;;;;;;10.15;1.48;;;6.50;10.40;;;;;;20641736;28;20065;-44
2023/02/01 01:34:02;;;;;;;3.78;1.60;;;6.50;10.70;;;;;;20635032;28;20714;-44
2023/02/01 01:44:45;;;;;;;16.70;2.95;;;6.50;10.70;;;;;;20627452;28;20132;-44
2023/02/01 01:54:50;;;;;;;9.23;3.20;;;6.70;10.90;;;;;;20626251;28;21014;-43
2023/02/01 02:04:51;;;;;;;6.20;1.92;;;6.80;11.90;;;;;;20628119;28;20495;-43
2023/02/01 02:14:52;;;;;;;7.28;2.40;;;6.90;14.30;;;;;;20625543;28;20133;-44
2023/02/01 02:25:32;;;;;;;4.72;1.70;;;7.20;11.50;;;;;;20639855;28;22584;-43
2023/02/01 02:35:55;;;;;;;4.43;1.52;;;7.10;11.70;;;;;;20630217;28;21068;-43
2023/02/01 03:06:40;;;;;;;4.38;1.55;;;7.40;6.50;;;;;;20622703;28;21731;-43
2023/02/01 03:16:52;;;;;;;7.15;1.67;;;7.20;8.10;;;;;;20628063;28;20565;-44
2023/02/01 03:26:55;;;;;;;4.30;2.15;;;7.20;6.60;;;;;;20637015;28;20175;-43
2023/02/01 03:37:04;;;;;;;7.18;2.47;;;7.00;8.20;;;;;;20634383;28;20545;-43
2023/02/01 03:47:10;;;;;;;5.75;2.30;;;6.80;11.00;;;;;;20618066;28;20185;-43
2023/02/01 03:57:16;;;;;;;5.57;2.80;;;6.80;12.30;;;;;;20632765;28;20132;-43
2023/02/01 04:07:17;;;;;;;8.85;2.67;;;6.90;11.80;;;;;;20633194;28;20173;-43
2023/02/01 04:17:18;;;;;;;2.00;0.98;;;7.10;8.10;;;;;;20627755;28;20566;-43
2023/02/01 04:27:19;;;;;;;9.82;3.13;;;7.20;6.10;;;;;;20632015;28;20757;-43
2023/02/01 04:37:20;;;;;;;3.72;2.05;;;7.20;7.10;;;;;;20653048;28;20046;-43
2023/02/01 04:47:21;;;;;;;4.80;1.58;;;7.00;8.50;;;;;;20638017;28;20408;-43
2023/02/01 04:57:22;;;;;;;4.65;2.15;;;6.90;9.60;;;;;;20640428;28;20048;-43
2023/02/01 05:07:23;;;;;;;9.13;2.35;;;6.70;11.10;;;;;;20639350;28;20038;-43
2023/02/01 05:17:24;;;;;;;6.32;2.40;;;6.60;13.00;;;;;;20644380;28;20073;-43
2023/02/01 05:27:25;;;;;;;11.55;2.40;;;6.60;12.80;;;;;;20638886;28;20046;-43
2023/02/01 05:37:26;;;;;;;6.25;1.63;;;6.60;13.80;;;;;;20630372;28;20045;-43
2023/02/01 05:47:27;;;;;;;7.35;1.95;;;6.60;16.50;;;;;;20628946;28;20128;-43
2023/02/01 05:57:28;;;;;;;6.43;1.92;;;6.80;16.40;;;;;;20631217;28;20255;-43
2023/02/01 06:07:29;;;;;;;5.50;1.27;;;6.80;15.50;;;;;;20640876;28;20125;-43
2023/02/01 06:17:30;;;;;;;5.50;2.65;;;6.70;18.20;;;;;;20634884;28;20189;-43
2023/02/01 06:27:32;;;;;;;4.00;1.70;;;6.60;21.10;;;;;;20643119;28;20042;-43
2023/02/01 06:37:34;;;;;;;11.93;3.17;;;6.70;18.40;;;;;;20635563;28;20144;-43
2023/02/01 06:47:35;;;;;;;6.18;2.10;;;6.60;18.80;;;;;;20640758;28;20128;-43
2023/02/01 06:57:36;;;;;;;3.70;1.55;;;6.60;23.30;;;;;;20627939;28;20891;-43
2023/02/01 07:07:37;;;;;;;5.07;1.90;;;6.70;23.80;;;;;;20618161;28;20034;-43
2023/02/01 07:17:38;;;;;;;5.38;1.65;;;6.80;22.10;;;;;;20637831;28;20055;-44
2023/02/01 07:27:39;;;;;;;4.50;2.15;;;6.90;16.80;;;;;;20637605;28;20070;-43
2023/02/01 07:37:40;;;;;;;5.07;1.58;;;6.90;17.40;;;;;;20642765;28;20073;-43
2023/02/01 07:47:41;;;;;;;2.70;1.13;;;6.90;18.60;;;;;;20636149;28;20112;-43
2023/02/01 07:57:42;;;;;;;9.63;2.65;;;6.80;18.90;;;;;;20644873;28;20042;-43
2023/02/01 08:07:43;;;;;;;9.80;2.58;;;6.70;21.10;;;;;;20647774;28;20043;-43
2023/02/01 08:17:51;;;;;;;4.18;1.30;;;6.70;21.10;;;;;;20647223;28;20041;-43
2023/02/01 08:27:54;;;;;;;5.78;1.67;;;6.70;24.00;;;;;;20650660;28;20081;-43
2023/02/01 08:37:55;;;;;;;6.57;2.45;;;6.70;25.20;;;;;;20649992;28;20133;-43
2023/02/01 08:47:57;;;;;;;5.25;2.42;;;6.90;23.50;;;;;;20651874;28;20042;-43
2023/02/01 08:57:57;;;;;;;3.60;1.55;;;7.10;23.40;;;;;;20644643;28;20121;-44
2023/02/01 09:07:59;;;;;;;7.78;1.95;;;7.40;21.30;;;;;;20623505;28;20065;-43
2023/02/01 09:18:00;;;;;;;5.50;1.92;;;7.80;17.30;;;;;;20647993;28;20081;-43
2023/02/01 09:28:03;;;;;;;8.73;1.67;;;8.10;11.00;;;;;;20648463;28;20123;-44
2023/02/01 09:38:04;;;;;;;10.90;2.20;;;8.10;9.90;;;;;;20644076;28;20065;-43
2023/02/01 09:48:16;;;;;;;5.32;2.33;;;8.10;10.40;;;;;;20642893;28;20184;-43
2023/02/01 09:58:33;;;;;;;13.55;3.42;;;8.00;8.30;;;;;;20634766;28;20382;-44
2023/02/01 10:08:53;;;;;;;6.03;2.15;;;7.90;8.20;;;;;;20628787;28;21845;-43
2023/02/01 10:19:14;;;;;;;7.20;2.50;;;7.70;16.30;;;;;;20640965;28;20134;-43
2023/02/01 10:29:19;;;;;;;4.63;2.30;;;7.50;31.10;;;;;;20644642;28;20080;-43
2023/02/01 10:39:23;;;;;;;6.68;3.45;;;7.40;35.00;;;;;;20635196;28;20564;-43
2023/02/01 10:49:33;;;;;;;7.18;1.85;;;7.50;24.50;;;;;;20647702;28;20050;-43
2023/02/01 10:59:36;;;;;;;4.07;1.55;;;7.60;19.40;;;;;;20644026;28;20290;-43
2023/02/01 11:09:40;;;;;;;7.10;2.40;;;7.90;20.20;;;;;;20649465;28;20137;-43
2023/02/01 11:19:57;;;;;;;4.13;1.70;;;7.80;25.10;;;;;;20660211;28;20042;-43
2023/02/01 11:30:01;;;;;;;4.50;1.77;;;7.90;24.60;;;;;;20659091;28;21003;-43
2023/02/01 11:40:25;;;;;;;8.43;1.50;;;8.10;24.20;;;;;;20662369;28;20050;-44
2023/02/01 11:50:40;;;;;;;3.38;2.03;;;8.30;16.60;;;;;;20660040;28;20065;-43
2023/02/01 12:01:22;;;;;;;3.67;1.65;;;8.50;11.70;;;;;;20658326;28;20350;-43
2023/02/01 12:11:35;;;;;;;4.05;1.73;;;8.50;12.50;;;;;;20662528;28;20038;-43
2023/02/01 12:21:46;;;;;;;7.93;1.83;;;8.70;8.30;;;;;;20654008;28;21816;-43
2023/02/01 12:32:11;;;;;;;6.75;2.17;;;8.70;8.90;;;;;;20653887;28;20038;-43
2023/02/01 12:42:24;;;;;;;8.77;3.22;;;8.70;8.00;;;;;;20654547;28;20050;-43
2023/02/01 12:52:37;;;;;;;3.63;1.13;;;8.60;10.00;;;;;;20652288;28;20045;-43
2023/02/01 13:02:44;;;;;;;5.88;1.98;;;9.00;8.20;;;;;;20658652;28;20962;-43
2023/02/01 13:12:51;;;;;;;7.97;2.07;;;9.10;6.50;;;;;;20657293;28;20572;-43
2023/02/01 13:22:59;;;;;;;;;;;9.00;5.80;;;;;;20659366;28;20042;-43
2023/02/01 13:33:23;;;;;;;5.73;1.67;;;8.90;5.30;;;;;;20651121;28;19983;-43
2023/02/01 13:43:28;;;;;;;7.93;1.60;;;8.80;7.40;;;;;;20598748;28;20093;-43
2023/02/01 13:53:33;;;;;;;5.93;1.65;;;8.70;8.80;;;;;;20633901;28;20070;-43
2023/02/01 14:03:46;;;;;;;8.70;2.15;;;8.70;9.80;;;;;;20637973;28;20979;-43
2023/02/01 14:13:47;;;;;;;4.10;1.58;;;8.80;8.80;;;;;;20638640;28;20932;-43
2023/02/01 14:24:01;;;;;;;4.78;1.98;;;8.80;10.00;;;;;;20634148;28;20065;-43
2023/02/01 14:34:30;;;;;;;4.15;1.75;;;8.80;11.70;;;;;;20639105;28;20074;-44
2023/02/01 14:44:34;;;;;;;4.35;2.05;;;8.70;13.60;;;;;;20619583;28;20173;-43
2023/02/01 14:54:36;;;;;;;6.30;2.38;;;8.70;16.30;;;;;;20630629;28;20339;-43
2023/02/01 15:04:41;;;;;;;4.75;1.80;;;8.70;15.60;;;;;;20622913;28;20254;-43
2023/02/01 15:14:48;;;;;;;5.35;1.63;;;8.70;17.10;;;;;;20633830;28;20120;-43
2023/02/01 15:24:54;;;;;;;4.07;1.20;;;8.70;15.90;;;;;;20634920;28;20501;-43
2023/02/01 15:34:54;;;;;;;3.97;1.52;;;8.70;16.60;;;;;;20559719;28;22253;-43
2023/02/01 15:44:56;;;;;;;16.33;2.63;;;8.70;14.00;;;;;;20629906;28;20049;-44
2023/02/01 15:55:01;;;;;;;3.83;1.75;;;8.70;15.00;;;;;;20635258;28;20100;-43
2023/02/01 16:05:03;;;;;;;5.43;1.90;;;8.60;15.10;;;;;;20649766;28;20042;-44
2023/02/01 16:15:05;;;;;;;5.63;2.05;;;8.60;16.60;;;;;;20642389;28;20568;-43
2023/02/01 16:25:07;;;;;;;3.40;1.67;;;8.60;16.80;;;;;;20661967;28;20038;-43
2023/02/01 16:35:23;;;;;;;8.20;1.52;;;8.60;18.00;;;;;;20639827;28;20066;-43
2023/02/01 16:45:24;;;;;;;16.52;2.42;;;8.70;20.10;;;;;;20649973;28;20062;-43
2023/02/01 16:55:25;;;;;;;6.57;2.03;;;8.70;19.80;;;;;;20643494;28;20047;-44
2023/02/01 17:05:26;;;;;;;5.22;1.35;;;8.70;21.10;;;;;;20593533;28;20121;-44
2023/02/01 17:15:33;;;;;;;10.75;2.05;;;8.60;23.70;;;;;;20641550;28;20042;-43
2023/02/01 17:25:34;;;;;;;3.70;0.93;;;8.70;23.50;;;;;;20647465;28;21869;-43
2023/02/01 17:35:35;;;;;;;8.18;2.47;;;8.70;25.50;;;;;;20641600;28;21082;-43
2023/02/01 17:45:46;;;;;;;12.88;2.70;;;8.80;21.70;;;;;;20632057;28;20092;-43
2023/02/01 17:55:47;;;;;;;3.15;1.33;;;8.70;23.50;;;;;;20631798;28;20237;-44
2023/02/01 18:05:51;;;;;;;11.02;3.35;;;8.80;24.10;;;;;;20625597;28;20065;-43
2023/02/01 18:15:52;;;;;;;8.82;1.45;;;8.80;24.90;;;;;;20627063;28;20177;-43
2023/02/01 18:25:53;;;;;;;4.10;1.63;;;8.80;24.00;;;;;;20625240;28;20041;-43
2023/02/01 18:35:54;;;;;;;13.07;2.72;;;8.90;23.10;;;;;;20635538;28;21911;-43
2023/02/01 18:45:55;;;;;;;11.07;1.17;;;8.90;22.00;;;;;;20645170;28;20553;-43
2023/02/01 18:55:57;;;;;;;4.45;1.48;;;8.90;22.50;;;;;;20622594;28;20141;-43
2023/02/01 19:05:58;;;;;;;7.13;2.58;;;9.00;21.40;;;;;;20634324;28;20265;-43
2023/02/01 19:16:08;;;;;;;5.60;1.23;;;9.00;20.70;;;;;;20630803;28;20038;-43
2023/02/01 19:26:14;;;;;;;10.48;2.38;;;9.10;20.40;;;;;;20642999;28;20105;-43
2023/02/01 19:36:15;;;;;;;18.25;2.00;;;9.10;19.40;;;;;;20642775;28;20483;-44
2023/02/01 19:46:16;;;;;;;6.40;2.65;;;9.00;20.00;;;;;;20585856;28;20038;-43
2023/02/01 19:56:17;;;;;;;4.38;1.45;;;8.90;21.80;;;;;;20642752;28;20077;-43
2023/02/01 20:06:18;;;;;;;3.63;1.15;;;8.90;24.10;;;;;;20628766;28;20081;-43
2023/02/01 20:16:20;;;;;;;4.95;1.70;;;8.80;24.30;;;;;;20641680;28;20397;-43
2023/02/01 20:26:23;;;;;;;5.65;1.35;;;8.80;26.20;;;;;;20637725;28;20141;-43
2023/02/01 20:36:25;;;;;;;4.88;1.65;;;8.80;26.70;;;;;;20631640;28;20486;-43
2023/02/01 20:46:26;;;;;;;4.82;2.13;;;8.90;25.70;;;;;;20645133;28;20196;-43
2023/02/01 20:56:27;;;;;;;4.13;1.48;;;8.90;26.90;;;;;;20634420;28;20396;-43
2023/02/01 21:06:28;;;;;;;11.90;2.75;;;9.00;26.80;;;;;;20632286;28;20069;-43
2023/02/01 21:16:29;;;;;;;5.50;2.33;;;9.00;29.70;;;;;;20642472;28;20082;-43
2023/02/01 21:26:39;;;;;;;10.10;2.30;;;9.00;28.20;;;;;;20645632;28;20084;-43
2023/02/01 21:36:40;;;;;;;8.43;3.15;;;8.90;31.80;;;;;;20646879;28;21899;-43
2023/02/01 21:46:43;;;;;;;4.07;1.55;;;8.90;32.30;;;;;;20652029;28;20106;-43
2023/02/01 21:56:44;;;;;;;4.22;1.10;;;8.90;36.60;;;;;;20634424;28;20054;-43
2023/02/01 22:06:45;;;;;;;13.30;4.43;;;9.00;37.20;;;;;;20658569;28;20034;-43
2023/02/01 22:16:46;;;;;;;9.23;2.08;;;9.00;38.40;;;;;;20648102;28;20045;-43
2023/02/01 22:26:48;;;;;;;4.90;1.80;;;8.80;84.20;;;;;;20633274;28;20447;-43
2023/02/01 22:36:49;;;;;;;5.18;2.20;;;8.30;99.90;;;;;;20629390;28;20128;-42
2023/02/01 22:46:50;;;;;;;5.18;1.33;;;8.00;99.90;;;;;;20630904;28;20061;-42
2023/02/01 22:56:51;;;;;;;5.93;2.15;;;8.00;99.90;;;;;;20616803;28;20048;-42
2023/02/01 23:06:52;;;;;;;4.55;2.25;;;7.90;99.90;;;;;;20623558;28;20175;-42
2023/02/01 23:16:53;;;;;;;4.47;1.85;;;7.90;99.90;;;;;;20628361;28;20129;-42
2023/02/01 23:26:54;;;;;;;8.40;2.20;;;7.90;99.90;;;;;;20639616;28;20077;-43
2023/02/01 23:36:56;;;;;;;4.20;1.80;;;8.00;99.90;;;;;;20638800;28;20356;-43
2023/02/01 23:46:57;;;;;;;10.05;2.88;;;8.00;99.90;;;;;;20643842;28;20081;-43
2023/02/01 23:56:58;;;;;;;6.30;1.73;;;8.10;99.90;;;;;;20621941;28;20130;-43
